Time;durP1;ratioP1;P1;durP2;ratioP2;P2;SDS_P1;SDS_P2;PMS_P1;PMS_P2;Temp;Humidity;BMP_temperature;BMP_pressure;BME280_temperature;BME280_humidity;BME280_pressure;Samples;Min_cycle;Max_cycle;Signal;HPM_P1;HPM_P2
2023/01/24 00:00:27;;;;;;;22.70;15.07;;;;;;;6.27;60.33;98801.63;5061532;28;20210;-72
2023/01/24 00:02:53;;;;;;;23.47;15.57;;;;;;;6.29;60.22;98799.78;5063698;28;20254;-72
2023/01/24 00:05:19;;;;;;;26.40;16.57;;;;;;;6.27;59.63;98791.22;5062414;28;20274;-72
2023/01/24 00:07:44;;;;;;;25.07;16.53;;;;;;;6.27;59.96;98792.06;5059124;28;20521;-72
2023/01/24 00:10:10;;;;;;;24.00;15.83;;;;;;;6.23;59.81;98789.72;5062337;28;20211;-72
2023/01/24 00:12:36;;;;;;;23.57;15.70;;;;;;;6.20;60.10;98790.72;5062887;28;20183;-70
2023/01/24 00:15:01;;;;;;;27.73;16.43;;;;;;;6.20;60.40;98789.88;5055047;28;20420;-71
2023/01/24 00:17:26;;;;;;;27.67;16.13;;;;;;;6.20;60.14;98784.69;5063088;28;20842;-71
2023/01/24 00:19:52;;;;;;;24.80;15.70;;;;;;;6.12;60.17;98787.72;5061929;28;20211;-71
2023/01/24 00:22:17;;;;;;;22.30;15.77;;;;;;;6.19;60.18;98789.03;5063350;28;20258;-71
2023/01/24 00:24:43;;;;;;;23.43;15.13;;;;;;;6.16;60.04;98784.03;5062503;28;20689;-70
2023/01/24 00:27:08;;;;;;;24.20;16.03;;;;;;;6.14;60.59;98780.66;5064514;28;20257;-71
2023/01/24 00:29:34;;;;;;;24.37;16.20;;;;;;;6.15;60.21;98782.34;5063274;28;20297;-71
2023/01/24 00:31:59;;;;;;;24.20;16.47;;;;;;;6.09;60.23;98783.53;5053229;28;20320;-71
2023/01/24 00:34:25;;;;;;;22.03;14.70;;;;;;;6.16;60.40;98794.44;5063802;28;20175;-71
2023/01/24 00:36:50;;;;;;;24.33;16.13;;;;;;;6.16;60.22;98804.84;5061177;28;20170;-71
2023/01/24 00:39:15;;;;;;;23.30;15.20;;;;;;;6.17;60.20;98805.66;5055016;28;20205;-71
2023/01/24 00:41:41;;;;;;;22.87;15.90;;;;;;;6.22;60.33;98799.28;5064378;28;20268;-70
2023/01/24 00:44:06;;;;;;;25.60;15.67;;;;;;;6.20;60.14;98805.50;5065326;28;20265;-70
2023/01/24 00:46:32;;;;;;;23.10;15.27;;;;;;;6.22;60.18;98796.69;5062968;28;20288;-70
2023/01/24 00:49:00;;;;;;;23.03;15.60;;;;;;;6.21;60.01;98805.41;5059712;28;20229;-69
2023/01/24 00:51:25;;;;;;;24.17;15.70;;;;;;;6.13;60.17;98805.84;5061705;28;20178;-70
2023/01/24 00:53:50;;;;;;;20.70;14.53;;;;;;;6.17;60.13;98803.94;5055180;28;20417;-71
2023/01/24 00:56:16;;;;;;;23.20;15.57;;;;;;;6.20;60.33;98800.31;5061829;28;20264;-69
2023/01/24 00:58:41;;;;;;;24.23;14.70;;;;;;;6.20;60.29;98801.13;5059918;28;20190;-72
2023/01/24 01:01:07;;;;;;;23.00;14.60;;;;;;;6.18;59.93;98808.19;5058102;28;20645;-71
2023/01/24 01:03:33;;;;;;;21.93;14.80;;;;;;;6.14;59.86;98806.69;5061577;28;20206;-71
2023/01/24 01:06:02;;;;;;;26.27;15.80;;;;;;;6.13;59.84;98794.59;5064477;28;20174;-71
2023/01/24 01:08:27;;;;;;;21.37;14.57;;;;;;;6.15;59.68;98797.97;5054309;28;20206;-71
2023/01/24 01:10:53;;;;;;;22.77;15.17;;;;;;;6.17;59.94;98809.13;5060398;28;20990;-71
2023/01/24 01:13:18;;;;;;;21.47;14.73;;;;;;;6.18;60.03;98816.00;5059926;28;20182;-71
2023/01/24 01:15:44;;;;;;;21.20;13.73;;;;;;;6.12;60.02;98813.75;5045456;28;20706;-71
2023/01/24 01:18:09;;;;;;;20.00;13.87;;;;;;;6.15;60.01;98816.19;5048636;28;20226;-70
2023/01/24 01:20:35;;;;;;;22.17;14.93;;;;;;;6.19;60.19;98815.06;5052350;28;20170;-70
2023/01/24 01:23:00;;;;;;;21.40;14.37;;;;;;;6.23;60.04;98813.16;5064607;28;20210;-69
2023/01/24 01:25:25;;;;;;;21.13;14.17;;;;;;;6.17;59.59;98811.75;5057623;28;20175;-74
2023/01/24 01:27:51;;;;;;;19.93;14.47;;;;;;;6.21;60.12;98821.03;5068621;28;20209;-69
2023/01/24 01:30:17;;;;;;;20.30;13.20;;;;;;;6.19;59.80;98825.47;5064073;28;20246;-71
2023/01/24 01:32:42;;;;;;;23.80;14.47;;;;;;;6.20;59.75;98818.53;5048120;28;20658;-69
2023/01/24 01:35:08;;;;;;;22.40;14.63;;;;;;;6.21;59.78;98817.59;5055397;28;20179;-71
2023/01/24 01:37:33;;;;;;;20.80;14.60;;;;;;;6.19;59.35;98817.69;5060751;28;20202;-71
2023/01/24 01:39:59;;;;;;;20.00;13.67;;;;;;;6.16;59.44;98815.25;5063638;28;20635;-70
2023/01/24 01:42:24;;;;;;;20.03;14.20;;;;;;;6.15;59.56;98814.41;5066385;28;20182;-70
2023/01/24 01:44:50;;;;;;;18.80;13.80;;;;;;;6.16;59.64;98825.69;5063342;28;20171;-70
2023/01/24 01:47:39;;;;;;;23.23;13.33;;;;;;;6.16;59.77;98825.69;5054490;28;20198;-71
2023/01/24 01:50:14;;;;;;;20.67;14.37;;;;;;;6.21;59.89;98822.81;5064316;28;20192;-70
2023/01/24 01:52:41;;;;;;;21.93;14.47;;;;;;;6.20;59.57;98827.16;5062585;28;20810;-70
2023/01/24 01:55:16;;;;;;;22.47;14.70;;;;;;;6.19;59.74;98829.88;5057802;28;20421;-70
2023/01/24 01:57:42;;;;;;;18.23;13.57;;;;;;;6.22;59.62;98835.75;5063020;28;20459;-71
2023/01/24 02:00:11;;;;;;;18.40;13.87;;;;;;;6.15;59.65;98829.22;5058152;28;20413;-70
2023/01/24 02:02:38;;;;;;;20.13;13.40;;;;;;;6.17;59.25;98816.09;5064470;28;20412;-70
2023/01/24 02:05:05;;;;;;;21.60;13.80;;;;;;;6.20;59.29;98832.38;5061777;28;20437;-70
2023/01/24 02:07:44;;;;;;;18.83;12.67;;;;;;;6.14;59.60;98827.53;5040794;28;20433;-71
2023/01/24 02:10:10;;;;;;;24.13;15.00;;;;;;;6.10;59.82;98836.41;5064703;28;21191;-70
2023/01/24 02:12:38;;;;;;;20.40;13.80;;;;;;;6.10;59.68;98826.84;5064223;28;20912;-71
2023/01/24 02:18:00;;;;;;;23.07;14.23;;;;;;;6.13;59.89;98831.03;5056589;28;20452;-70
2023/01/24 02:20:38;;;;;;;23.07;14.90;;;;;;;6.09;59.85;98830.38;5061138;28;20410;-71
2023/01/24 02:23:11;;;;;;;22.83;15.23;;;;;;;6.13;59.58;98831.88;5067298;28;20784;-70
2023/01/24 02:25:50;;;;;;;23.40;14.57;;;;;;;6.10;59.60;98834.66;5056631;28;20409;-71
2023/01/24 02:28:16;;;;;;;22.10;14.50;;;;;;;6.13;59.91;98841.47;5067189;28;20437;-71
2023/01/24 02:30:42;;;;;;;18.87;13.10;;;;;;;6.03;60.20;98840.28;5049577;28;20442;-71
2023/01/24 02:33:18;;;;;;;20.30;13.80;;;;;;;5.97;60.15;98844.84;5041797;28;20267;-70
2023/01/24 02:35:43;;;;;;;21.40;14.37;;;;;;;5.98;60.20;98843.94;5061841;28;20686;-70
2023/01/24 02:38:19;;;;;;;22.00;14.70;;;;;;;6.02;60.47;98843.81;5054745;28;20528;-70
2023/01/24 02:40:46;;;;;;;23.57;14.30;;;;;;;6.08;60.13;98851.28;5058209;28;20189;-70
2023/01/24 02:43:13;;;;;;;21.57;14.47;;;;;;;6.14;60.26;98848.34;5061638;28;21095;-71
2023/01/24 02:45:38;;;;;;;21.07;14.50;;;;;;;6.14;60.10;98851.78;5060468;28;20995;-70
2023/01/24 02:48:04;;;;;;;20.57;14.37;;;;;;;6.10;59.94;98852.03;5053691;28;20438;-70
2023/01/24 02:53:29;;;;;;;22.23;14.40;;;;;;;6.09;59.76;98858.16;5068558;28;20206;-70
2023/01/24 02:53:31;;;;;;;21.47;14.87;;;;;;;6.07;60.69;98853.06;5060431;28;20198;-70
2023/01/24 02:58:43;;;;;;;25.90;15.40;;;;;;;6.18;60.13;98860.25;5051766;28;20481;-70
2023/01/24 03:01:08;;;;;;;21.67;14.00;;;;;;;6.15;59.98;98858.66;5061300;28;20421;-68
2023/01/24 03:03:34;;;;;;;23.50;14.80;;;;;;;6.18;59.84;98854.22;5056956;28;20777;-69
2023/01/24 03:06:00;;;;;;;22.40;15.20;;;;;;;6.19;60.06;98856.72;5056524;28;20265;-71
2023/01/24 03:08:28;;;;;;;21.83;14.60;;;;;;;6.18;60.07;98849.84;5060082;28;20241;-69
2023/01/24 03:10:54;;;;;;;21.77;14.70;;;;;;;6.18;60.19;98865.47;5065034;28;20416;-70
2023/01/24 03:35:11;;;;;;;21.83;13.60;;;;;;;6.13;60.38;98849.28;5053797;28;20421;-70
2023/01/24 03:40:22;;;;;;;20.17;14.00;;;;;;;6.20;60.70;98861.03;5054654;28;20227;-70
2023/01/24 03:42:50;;;;;;;20.83;14.77;;;;;;;6.21;60.19;98856.66;5063892;28;21041;-69
2023/01/24 03:45:18;;;;;;;22.80;15.83;;;;;;;6.21;60.36;98861.88;5057857;28;20681;-69
2023/01/24 03:48:04;;;;;;;23.17;15.37;;;;;;;6.22;60.03;98863.56;5060949;28;20432;-70
2023/01/24 03:53:19;;;;;;;21.37;14.57;;;;;;;6.25;59.94;98866.81;5059469;28;20965;-69
2023/01/24 03:55:46;;;;;;;21.30;14.20;;;;;;;6.23;60.01;98863.47;5059381;28;20413;-70
2023/01/24 03:58:12;;;;;;;22.23;14.70;;;;;;;6.24;60.20;98869.50;5058363;28;20850;-69
2023/01/24 04:00:38;;;;;;;21.73;14.33;;;;;;;6.27;60.03;98864.97;5061819;28;20795;-70
2023/01/24 04:03:03;;;;;;;20.90;14.50;;;;;;;6.30;60.47;98866.56;5055328;28;20928;-70
2023/01/24 04:05:29;;;;;;;21.93;13.80;;;;;;;6.28;59.54;98869.28;5062067;28;20492;-71
2023/01/24 04:07:55;;;;;;;22.53;14.20;;;;;;;6.30;59.46;98869.16;5056904;28;20207;-71
2023/01/24 04:10:21;;;;;;;25.33;13.60;;;;;;;6.26;59.82;98871.13;5057598;28;20264;-71
2023/01/24 04:12:47;;;;;;;23.33;15.70;;;;;;;6.24;60.17;98874.69;5064551;28;20418;-69
2023/01/24 04:15:21;;;;;;;21.57;14.60;;;;;;;6.24;60.19;98867.75;5059988;28;21023;-70
2023/01/24 04:17:46;;;;;;;22.17;14.73;;;;;;;6.25;60.01;98861.63;5066083;28;20696;-69
2023/01/24 04:20:12;;;;;;;20.30;14.00;;;;;;;6.25;60.00;98866.81;5049881;28;20479;-69
2023/01/24 04:22:38;;;;;;;23.70;15.40;;;;;;;6.23;59.87;98863.47;5068815;28;20192;-70
2023/01/24 04:25:04;;;;;;;26.03;15.40;;;;;;;6.20;59.87;98861.03;5060668;28;20505;-69
2023/01/24 04:27:29;;;;;;;24.67;15.70;;;;;;;6.19;60.22;98861.13;5059859;28;20194;-69
2023/01/24 04:29:54;;;;;;;25.43;15.97;;;;;;;6.18;60.04;98854.22;5063398;28;20563;-69
2023/01/24 04:32:20;;;;;;;23.50;15.03;;;;;;;6.19;60.56;98861.13;5061137;28;20221;-69
2023/01/24 04:34:45;;;;;;;22.80;15.63;;;;;;;6.17;60.08;98858.59;5064941;28;20259;-69
2023/01/24 04:37:11;;;;;;;24.17;14.77;;;;;;;6.22;60.17;98860.94;5059041;28;20205;-70
2023/01/24 04:39:36;;;;;;;21.57;15.23;;;;;;;6.19;60.41;98866.31;5052212;28;20730;-70
2023/01/24 04:42:02;;;;;;;25.70;16.27;;;;;;;6.14;60.35;98859.59;5062352;28;20181;-69
2023/01/24 04:44:27;;;;;;;24.30;16.30;;;;;;;6.18;60.49;98865.47;5063805;28;20182;-71
2023/01/24 04:46:53;;;;;;;24.80;15.70;;;;;;;6.20;60.48;98863.63;5057092;28;20174;-69
2023/01/24 04:49:18;;;;;;;24.23;15.70;;;;;;;6.23;60.43;98862.63;5064046;28;20249;-69
2023/01/24 04:51:46;;;;;;;26.10;16.20;;;;;;;6.20;60.53;98866.22;5041421;28;20179;-71
2023/01/24 04:54:12;;;;;;;22.00;15.30;;;;;;;6.24;60.74;98869.50;5048191;28;20204;-71
2023/01/24 04:56:38;;;;;;;24.80;15.60;;;;;;;6.27;60.78;98872.78;5035961;28;20429;-70
2023/01/24 04:59:04;;;;;;;24.00;16.13;;;;;;;6.27;60.31;98870.19;5055579;28;20183;-71
2023/01/24 05:01:29;;;;;;;23.20;15.33;;;;;;;6.23;60.35;98875.66;5057911;28;20201;-70
2023/01/24 05:03:58;;;;;;;25.43;15.00;;;;;;;6.24;60.27;98875.56;5054724;28;20422;-70
2023/01/24 05:06:25;;;;;;;23.53;14.90;;;;;;;6.24;60.46;98877.31;5061188;28;20269;-69
2023/01/24 05:08:52;;;;;;;23.87;15.10;;;;;;;6.30;60.94;98877.00;5058518;28;21312;-70
2023/01/24 05:11:17;;;;;;;24.20;15.50;;;;;;;6.28;60.42;98882.28;5051837;28;20426;-69
2023/01/24 05:13:43;;;;;;;24.97;17.10;;;;;;;6.30;60.31;98885.63;5067181;28;20546;-70
2023/01/24 05:16:08;;;;;;;24.20;14.80;;;;;;;6.28;60.23;98884.88;5065140;28;20262;-70
2023/01/24 05:18:34;;;;;;;24.27;15.33;;;;;;;6.27;60.09;98885.81;5057078;28;20552;-69
2023/01/24 05:21:07;;;;;;;24.30;15.20;;;;;;;6.30;60.36;98884.81;5065715;28;20213;-71
2023/01/24 05:23:32;;;;;;;23.20;15.80;;;;;;;6.27;60.36;98891.03;5069068;28;20166;-72
2023/01/24 05:25:59;;;;;;;22.50;14.60;;;;;;;6.24;60.54;98896.38;5063401;28;20790;-71
2023/01/24 05:28:24;;;;;;;25.63;16.60;;;;;;;6.19;60.58;98897.56;5050846;28;20258;-71
2023/01/24 05:30:50;;;;;;;47.57;24.53;;;;;;;6.24;60.79;98896.38;5061437;28;20982;-71
2023/01/24 05:33:15;;;;;;;32.80;19.13;;;;;;;6.26;60.67;98897.16;5063061;28;20228;-72
2023/01/24 05:35:43;;;;;;;29.43;17.60;;;;;;;6.36;60.35;98894.91;5059558;28;20210;-71
2023/01/24 05:38:08;;;;;;;24.67;16.20;;;;;;;6.36;60.39;98904.47;5058970;28;20194;-70
2023/01/24 05:40:34;;;;;;;24.73;15.80;;;;;;;6.38;60.59;98902.59;5058928;28;20414;-71
2023/01/24 05:42:59;;;;;;;25.40;16.13;;;;;;;6.35;60.35;98913.19;5067355;28;20227;-70
2023/01/24 05:45:25;;;;;;;35.60;20.73;;;;;;;6.33;60.23;98908.06;5057723;28;20599;-70
2023/01/24 05:47:50;;;;;;;45.47;26.40;;;;;;;6.35;60.38;98916.66;5052416;28;20577;-71
2023/01/24 05:50:15;;;;;;;35.00;20.20;;;;;;;6.36;60.61;98920.09;5068022;28;20362;-70
2023/01/24 05:52:41;;;;;;;32.50;19.77;;;;;;;6.33;60.64;98915.03;5061277;28;20266;-69
2023/01/24 05:55:07;;;;;;;32.80;20.80;;;;;;;6.38;60.41;98924.28;5051796;28;20207;-69
2023/01/24 05:57:36;;;;;;;29.97;18.27;;;;;;;6.34;60.36;98917.56;5050220;28;20917;-70
2023/01/24 06:00:03;;;;;;;33.87;20.53;;;;;;;6.33;60.69;98904.63;5053119;28;20662;-70
2023/01/24 06:02:28;;;;;;;31.17;20.00;;;;;;;6.27;60.82;98914.47;5061752;28;20432;-70
2023/01/24 06:04:54;;;;;;;30.47;17.93;;;;;;;6.35;60.70;98913.19;5063715;28;20417;-70
2023/01/24 06:07:19;;;;;;;35.20;22.30;;;;;;;6.35;60.44;98914.03;5065759;28;20289;-70
2023/01/24 06:09:45;;;;;;;46.90;28.20;;;;;;;6.34;60.35;98914.13;5059429;28;20285;-70
2023/01/24 06:12:10;;;;;;;39.63;22.33;;;;;;;6.29;60.38;98920.44;5056447;28;20611;-70
2023/01/24 06:14:35;;;;;;;31.87;19.23;;;;;;;6.33;60.73;98920.25;5065553;28;20220;-70
2023/01/24 06:17:01;;;;;;;27.23;16.23;;;;;;;6.29;60.86;98914.38;5066027;28;20206;-70
2023/01/24 06:19:27;;;;;;;24.40;15.10;;;;;;;6.34;60.84;98917.56;5062312;28;20181;-70
2023/01/24 06:22:04;;;;;;;28.83;16.50;;;;;;;6.32;60.67;98919.41;5052161;28;20205;-70
2023/01/24 06:24:30;;;;;;;50.70;29.10;;;;;;;6.28;60.32;98918.75;5065269;28;20182;-70
2023/01/24 06:26:55;;;;;;;31.43;20.10;;;;;;;6.27;60.65;98924.03;5046047;28;20458;-70
2023/01/24 06:29:21;;;;;;;25.03;16.33;;;;;;;6.30;60.68;98916.03;5055577;28;20828;-70
2023/01/24 06:32:05;;;;;;;27.10;16.67;;;;;;;6.20;60.60;98922.69;5061415;28;20327;-70
2023/01/24 06:34:55;;;;;;;26.40;15.80;;;;;;;6.17;60.84;98922.84;5068746;28;20581;-71
2023/01/24 06:37:40;;;;;;;32.90;17.80;;;;;;;6.16;60.90;98927.22;5058932;28;20445;-70
2023/01/24 06:40:09;;;;;;;25.83;16.07;;;;;;;6.20;61.08;98925.28;5053861;28;20420;-69
2023/01/24 06:42:35;;;;;;;25.70;15.90;;;;;;;6.20;61.06;98931.31;5063605;28;20421;-71
2023/01/24 06:45:00;;;;;;;26.83;16.57;;;;;;;6.12;60.93;98944.75;5064306;28;20774;-70
2023/01/24 06:47:27;;;;;;;24.70;15.67;;;;;;;6.12;60.92;98936.09;5053660;28;20754;-70
2023/01/24 06:49:53;;;;;;;30.00;18.27;;;;;;;6.13;61.13;98945.59;5067483;28;20205;-69
2023/01/24 06:52:19;;;;;;;27.03;17.40;;;;;;;6.09;61.26;98934.53;5062814;28;20555;-70
2023/01/24 06:54:44;;;;;;;29.50;16.73;;;;;;;6.11;61.06;98942.22;5061583;28;20508;-70
2023/01/24 06:57:10;;;;;;;26.10;16.60;;;;;;;6.15;60.94;98948.97;5045693;28;20227;-70
2023/01/24 06:59:35;;;;;;;25.83;15.83;;;;;;;6.14;61.29;98944.69;5059029;28;20179;-70
2023/01/24 07:02:01;;;;;;;26.40;17.53;;;;;;;6.20;61.17;98949.56;5061602;28;20647;-69
2023/01/24 07:04:26;;;;;;;31.60;17.27;;;;;;;6.22;61.23;98954.69;5062375;28;20273;-70
2023/01/24 07:06:52;;;;;;;26.67;16.83;;;;;;;6.23;60.97;98952.00;5061545;28;20175;-70
2023/01/24 07:09:21;;;;;;;31.77;18.03;;;;;;;6.23;61.12;98961.59;5056927;28;20210;-70
2023/01/24 07:11:49;;;;;;;29.67;18.30;;;;;;;6.24;60.29;98953.69;5061718;28;20175;-70
2023/01/24 07:14:15;;;;;;;29.23;16.67;;;;;;;6.24;60.95;98958.88;5064528;28;20425;-70
2023/01/24 07:16:40;;;;;;;29.30;17.07;;;;;;;6.21;60.67;98958.22;5065108;28;21014;-70
2023/01/24 07:19:14;;;;;;;27.97;17.27;;;;;;;6.21;60.88;98958.22;5066210;28;20536;-70
2023/01/24 07:21:39;;;;;;;28.23;18.00;;;;;;;6.16;60.93;98963.69;5062994;28;20175;-69
2023/01/24 07:24:11;;;;;;;30.70;17.70;;;;;;;6.18;60.81;98964.41;5067044;28;20508;-69
2023/01/24 07:26:37;;;;;;;34.80;19.43;;;;;;;6.21;60.92;98961.66;5040143;28;20253;-70
2023/01/24 07:29:02;;;;;;;34.73;18.63;;;;;;;6.16;61.00;98971.47;5061916;28;20448;-69
2023/01/24 07:31:28;;;;;;;25.50;17.53;;;;;;;6.18;60.92;98972.22;5062634;28;20218;-70
2023/01/24 07:33:53;;;;;;;26.57;16.77;;;;;;;6.12;61.02;98976.00;5064836;28;20692;-71
2023/01/24 07:36:18;;;;;;;28.13;17.37;;;;;;;6.17;61.06;98978.38;5065571;28;20621;-70
2023/01/24 07:38:44;;;;;;;29.20;17.33;;;;;;;6.11;61.10;98984.72;5058727;28;20254;-70
2023/01/24 07:41:10;;;;;;;28.63;17.40;;;;;;;6.12;61.04;98986.41;5050068;28;20182;-70
2023/01/24 07:43:35;;;;;;;29.13;17.47;;;;;;;6.13;61.07;98982.88;5061480;28;20197;-71
2023/01/24 07:46:01;;;;;;;28.97;17.57;;;;;;;6.13;60.78;98987.25;5037660;28;20450;-71
2023/01/24 07:48:26;;;;;;;31.27;18.20;;;;;;;6.11;61.20;98989.94;5049905;28;20206;-71
2023/01/24 07:50:52;;;;;;;30.20;16.93;;;;;;;6.12;61.03;98993.38;5047515;28;20188;-70
2023/01/24 07:53:17;;;;;;;27.57;16.90;;;;;;;6.11;60.97;98995.13;5048820;28;20207;-70
2023/01/24 07:55:43;;;;;;;24.73;16.33;;;;;;;6.15;60.81;99001.03;5043484;28;20273;-71
2023/01/24 07:58:08;;;;;;;30.20;17.33;;;;;;;6.19;60.65;99004.31;5043503;28;20668;-71
2023/01/24 08:00:34;;;;;;;28.00;17.00;;;;;;;6.16;60.56;99007.94;5059610;28;20194;-70
2023/01/24 08:02:59;;;;;;;28.30;16.60;;;;;;;6.12;60.93;99015.03;5051330;28;20204;-71
2023/01/24 08:05:24;;;;;;;29.43;18.43;;;;;;;6.10;60.98;99013.44;5049424;28;20811;-71
2023/01/24 08:07:50;;;;;;;27.23;15.63;;;;;;;6.13;60.94;99016.72;5053529;28;20269;-72
2023/01/24 08:10:15;;;;;;;27.17;17.63;;;;;;;6.13;61.18;99011.53;5049761;28;20291;-71
2023/01/24 08:12:41;;;;;;;28.80;17.57;;;;;;;6.17;61.06;99014.84;5060448;28;20172;-74
2023/01/24 08:15:07;;;;;;;29.47;16.80;;;;;;;6.19;61.13;99018.16;5054591;28;20261;-74
2023/01/24 08:17:36;;;;;;;25.20;15.90;;;;;;;6.13;60.96;99014.13;5058032;28;20289;-75
2023/01/24 08:20:02;;;;;;;23.43;16.00;;;;;;;6.13;60.38;99008.91;5055608;28;20419;-73
2023/01/24 08:22:28;;;;;;;28.30;17.40;;;;;;;6.16;60.62;99018.34;5060842;28;20433;-74
2023/01/24 08:24:53;;;;;;;26.33;16.10;;;;;;;6.14;61.00;99020.19;5061458;28;20518;-74
2023/01/24 08:27:19;;;;;;;28.60;17.40;;;;;;;6.13;61.07;99027.16;5049806;28;20242;-73
2023/01/24 08:29:44;;;;;;;29.80;17.83;;;;;;;6.24;62.01;99024.00;5047351;28;20262;-71
2023/01/24 08:32:09;;;;;;;28.20;17.77;;;;;;;6.35;61.74;99030.41;5053194;28;20274;-71
2023/01/24 08:34:35;;;;;;;28.03;16.37;;;;;;;6.40;61.02;99020.59;5054002;28;20702;-70
2023/01/24 08:37:00;;;;;;;30.13;16.97;;;;;;;6.45;61.36;99036.78;5040032;28;20564;-71
2023/01/24 08:39:26;;;;;;;28.27;17.33;;;;;;;6.49;61.19;99025.28;5036217;28;20261;-72
2023/01/24 08:41:51;;;;;;;24.10;14.80;;;;;;;6.53;60.77;99032.03;5048889;28;20175;-72
2023/01/24 08:44:17;;;;;;;25.93;15.90;;;;;;;6.51;60.14;99044.31;5044775;28;20191;-72
2023/01/24 08:46:42;;;;;;;24.70;15.10;;;;;;;6.54;60.16;99044.16;5037479;28;20261;-71
2023/01/24 08:49:10;;;;;;;30.93;17.50;;;;;;;6.53;59.76;99045.06;5047627;28;20220;-72
2023/01/24 08:51:36;;;;;;;28.50;16.80;;;;;;;6.56;60.33;99044.06;5054855;28;20227;-71
2023/01/24 08:54:01;;;;;;;27.30;16.77;;;;;;;6.56;59.93;99039.66;5048180;28;20429;-71
2023/01/24 08:56:26;;;;;;;31.40;16.87;;;;;;;6.63;60.06;99047.16;5049471;28;20676;-72
2023/01/24 08:58:52;;;;;;;28.00;16.70;;;;;;;6.63;59.50;99047.16;5047410;28;20836;-72
2023/01/24 09:01:17;;;;;;;27.13;16.60;;;;;;;6.65;59.61;99048.75;5048562;28;20198;-71
2023/01/24 09:03:43;;;;;;;24.03;15.40;;;;;;;6.70;59.98;99049.38;5052875;28;20174;-72
2023/01/24 09:06:09;;;;;;;29.00;16.53;;;;;;;6.76;60.28;99049.03;5050708;28;20623;-71
2023/01/24 09:08:35;;;;;;;25.13;14.50;;;;;;;6.79;59.47;99047.19;5037389;28;20203;-71
2023/01/24 09:11:01;;;;;;;27.87;17.00;;;;;;;6.83;59.18;99052.13;5046550;28;20454;-71
2023/01/24 09:13:26;;;;;;;29.93;17.60;;;;;;;6.81;59.44;99055.75;5043793;28;20187;-72
2023/01/24 09:15:52;;;;;;;26.07;15.37;;;;;;;6.74;59.09;99044.81;5052049;28;20232;-71
2023/01/24 09:18:17;;;;;;;27.80;17.27;;;;;;;6.70;59.18;99051.13;5044112;28;20697;-72
2023/01/24 09:20:43;;;;;;;27.60;16.37;;;;;;;6.72;59.25;99055.34;5054068;28;20175;-71
2023/01/24 09:23:11;;;;;;;26.30;16.60;;;;;;;6.73;59.24;99058.78;5050258;28;20552;-71
2023/01/24 09:25:37;;;;;;;28.90;16.37;;;;;;;6.67;59.26;99061.72;5046517;28;20638;-71
2023/01/24 09:28:02;;;;;;;28.17;17.70;;;;;;;6.67;59.22;99064.34;5042186;28;20509;-71
2023/01/24 09:30:28;;;;;;;28.20;15.80;;;;;;;6.66;59.17;99065.25;5021252;28;20202;-71
2023/01/24 09:32:53;;;;;;;27.37;15.80;;;;;;;6.64;59.54;99059.28;5051767;28;20657;-71
2023/01/24 09:35:19;;;;;;;34.33;16.73;;;;;;;6.65;59.47;99066.19;5043539;28;20179;-71
2023/01/24 09:37:44;;;;;;;27.07;16.70;;;;;;;6.63;59.75;99062.81;5050157;28;20256;-71
2023/01/24 09:40:23;;;;;;;26.27;16.97;;;;;;;6.59;59.83;99072.56;5041336;28;20225;-71
2023/01/24 09:43:01;;;;;;;26.70;15.20;;;;;;;6.54;59.90;99072.81;5046993;28;20193;-70
2023/01/24 09:45:36;;;;;;;28.77;17.00;;;;;;;6.55;59.85;99066.63;5052126;28;20421;-72
2023/01/24 09:48:11;;;;;;;27.87;17.40;;;;;;;6.54;59.56;99067.59;5046873;28;21039;-70
2023/01/24 09:50:51;;;;;;;28.07;16.30;;;;;;;6.50;59.64;99068.66;5043479;28;20435;-71
2023/01/24 09:53:21;;;;;;;26.03;15.80;;;;;;;6.55;59.76;99063.22;5051031;28;20422;-71
2023/01/24 09:55:47;;;;;;;25.90;15.70;;;;;;;6.54;59.69;99067.59;5059021;28;20459;-71
2023/01/24 09:58:32;;;;;;;32.57;16.30;;;;;;;6.53;60.17;99067.66;5055352;28;20452;-72
2023/01/24 10:01:12;;;;;;;26.33;16.50;;;;;;;6.58;59.48;99063.88;5058246;28;20192;-71
2023/01/24 10:03:39;;;;;;;26.07;15.87;;;;;;;6.54;59.76;99065.00;5058278;28;21009;-73
2023/01/24 10:06:23;;;;;;;29.27;17.00;;;;;;;6.53;59.55;99062.44;5061509;28;20430;-71
2023/01/24 10:09:09;;;;;;;26.93;16.77;;;;;;;6.45;59.71;99065.44;5051286;28;20432;-71
2023/01/24 10:11:54;;;;;;;26.60;16.10;;;;;;;6.49;59.70;99069.59;5059396;28;20443;-72
2023/01/24 10:14:50;;;;;;;27.77;16.00;;;;;;;6.47;59.94;99074.03;5065529;28;21006;-73
2023/01/24 10:17:38;;;;;;;25.20;15.50;;;;;;;6.44;59.93;99076.78;5061870;28;20447;-71
2023/01/24 10:20:31;;;;;;;27.93;16.00;;;;;;;6.43;60.00;99078.56;5055325;28;20467;-71
2023/01/24 10:23:08;;;;;;;28.50;14.67;;;;;;;6.40;60.09;99068.31;5051749;28;20424;-70
2023/01/24 10:25:52;;;;;;;26.60;16.00;;;;;;;6.44;60.24;99068.97;5056184;28;20451;-70
2023/01/24 10:28:26;;;;;;;27.33;16.70;;;;;;;6.45;59.99;99073.25;5058056;28;20477;-73
2023/01/24 10:31:00;;;;;;;21.93;13.83;;;;;;;6.49;60.14;99074.78;5065989;28;21034;-71
2023/01/24 10:33:31;;;;;;;22.50;13.60;;;;;;;6.49;59.86;99071.38;5043581;28;20417;-72
2023/01/24 10:35:58;;;;;;;21.50;13.00;;;;;;;6.49;60.02;99069.59;5059932;28;20422;-71
2023/01/24 10:38:25;;;;;;;18.20;12.13;;;;;;;6.49;59.86;99066.16;5061688;28;20470;-72
2023/01/24 10:40:57;;;;;;;21.10;14.00;;;;;;;6.49;59.63;99069.59;5048384;28;20417;-71
2023/01/24 10:43:25;;;;;;;22.60;12.70;;;;;;;6.43;59.79;99062.94;5063518;28;20930;-71
2023/01/24 10:46:20;;;;;;;21.10;12.83;;;;;;;6.37;59.95;99063.25;5059764;28;20840;-71
2023/01/24 10:48:51;;;;;;;20.30;13.40;;;;;;;6.46;59.68;99059.31;5057558;28;20437;-73
2023/01/24 10:51:20;;;;;;;19.30;12.33;;;;;;;6.45;59.91;99057.63;5061504;28;20813;-70
2023/01/24 10:53:46;;;;;;;19.47;12.93;;;;;;;6.51;59.87;99049.50;5060875;28;20456;-72
2023/01/24 10:56:13;;;;;;;22.33;12.40;;;;;;;6.51;59.79;99054.72;5056481;28;20423;-73
2023/01/24 10:58:59;;;;;;;20.90;12.80;;;;;;;6.58;59.38;99050.03;5060147;28;20432;-72
2023/01/24 11:01:36;;;;;;;20.13;12.50;;;;;;;6.53;59.81;99052.88;5052274;28;20417;-73
2023/01/24 11:04:19;;;;;;;21.33;12.73;;;;;;;6.58;59.43;99053.47;5063942;28;20436;-70
2023/01/24 11:06:48;;;;;;;20.23;12.40;;;;;;;6.61;59.86;99050.69;5063329;28;20519;-71
2023/01/24 11:09:16;;;;;;;22.60;12.67;;;;;;;6.67;59.61;99048.69;5056539;28;20471;-71
2023/01/24 11:11:49;;;;;;;22.30;14.60;;;;;;;6.66;60.31;99042.63;5051973;28;20414;-71
2023/01/24 11:14:19;;;;;;;26.13;15.33;;;;;;;6.73;59.66;99041.41;5034453;28;20175;-71
2023/01/24 11:16:47;;;;;;;18.80;12.43;;;;;;;6.80;59.36;99043.66;5055805;28;20417;-72
2023/01/24 11:19:39;;;;;;;16.70;11.90;;;;;;;6.87;59.18;99045.00;5064534;28;20474;-71
2023/01/24 11:22:25;;;;;;;19.07;11.33;;;;;;;6.95;59.14;99047.19;5040405;28;20429;-71
2023/01/24 11:24:56;;;;;;;18.07;11.47;;;;;;;6.93;58.73;99033.41;5052249;28;20489;-72
2023/01/24 11:27:21;;;;;;;20.30;12.63;;;;;;;6.96;58.88;99046.25;5050201;28;20523;-71
2023/01/24 11:30:07;;;;;;;16.17;11.13;;;;;;;6.95;58.75;99044.56;5059346;28;20484;-71
2023/01/24 11:32:42;;;;;;;16.00;11.30;;;;;;;7.00;59.25;99048.59;5048007;28;20186;-71
2023/01/24 11:35:12;;;;;;;16.60;11.20;;;;;;;7.08;58.98;99040.38;5059927;28;20413;-70
2023/01/24 11:38:01;;;;;;;18.30;12.00;;;;;;;7.12;58.89;99034.06;5055087;28;20918;-71
2023/01/24 11:40:42;;;;;;;17.30;11.60;;;;;;;7.12;58.62;99047.09;5048409;28;20504;-71
2023/01/24 11:43:14;;;;;;;23.83;11.30;;;;;;;7.18;58.11;99033.69;5056378;28;20413;-71
2023/01/24 11:46:11;;;;;;;16.73;11.17;;;;;;;7.19;58.81;99030.16;5052865;28;20437;-70
2023/01/24 11:48:54;;;;;;;17.17;11.23;;;;;;;7.18;58.61;99033.69;5047420;28;20451;-71
2023/01/24 11:51:38;;;;;;;18.20;11.57;;;;;;;7.15;57.83;99033.91;5058474;28;20925;-70
2023/01/24 11:54:51;;;;;;;20.87;13.00;;;;;;;7.13;58.28;99029.66;5055802;28;20412;-71
2023/01/24 11:57:30;;;;;;;22.23;12.00;;;;;;;7.14;57.96;99024.38;5055570;28;20458;-70
2023/01/24 12:00:09;;;;;;;21.10;12.90;;;;;;;7.16;58.06;99014.72;5047468;28;20459;-71
2023/01/24 12:03:04;;;;;;;20.03;13.37;;;;;;;7.15;58.00;99015.63;5055655;28;20401;-70
2023/01/24 12:05:35;;;;;;;18.17;13.17;;;;;;;7.16;57.99;99014.72;5065787;28;20516;-72